Accueil
METAR-TAF:

METAR-TAF

Aéroports :

Aéroport international Maiquetía - Simón Bolívar

Caracas, Venezuela

latitude: 10-36N, longitude: 066-59W, altitude: 43 m

Observation

Le bulletin a été fait il y a 1 heure et 9 minutes, à 11:00 UTC
Vent 3 kt de est
Température 25°C
Humidité 83%
Pression 1011 hPa
Visibilité 10 km ou plus
Quelques nuages à une hauteur de 1600 ft

METAR: SVMI 181100Z 09003KT 9999 FEW016 25/22 Q1011

Heure: 08:09 (12:09 UTC)

Prévision

Le bulletin a été fait il y a 2 heures et 9 minutes, à 10:00 UTC
Prévision valable du 18 à 12 UTC au 19 à 12 UTC
Vent kt de nord
Visibilité 10 km ou plus
Nuages épars à une hauteur de 1600 ft
Temporairement
du 18 à 12 UTC au 18 à 14 UTC
Vent 4 kt de direction variable
Visibilité: 9000 m
Nuages épars à une hauteur de 1600 ft
Nuages fragmentés à une hauteur de 9000 ft
bruine

TAF: SVMI 181000Z 1812/1912 00000KT 9999 SCT016 TX33/18Z TN25/07Z TEMPO 1812/1814 VRB04KT 9000 DZ SCT016 BKN090

Observations et prévisions météorologiques de plus de 4000 aéroports (messages METAR et TAF).

Les stations disponibles sont représentées par des disques jaunes et rouges sur la carte.

Passer la souris dessus pour voir le nom de la station.

Cliquer dessus pour voir les observations et prévisions météorologiques.

Pour changer de carte: cliquez sur les boutons verts avec une croix noire pour zoomer, sur le bouton vert avec un tiret pour effectuer un zoom arrière, ou sur les flèches vertes pour les cartes adjacentes.


METAR-TAF: